createdAt,value
2019-02-02T00:01:55.008Z,2.80
2019-02-02T00:04:24.189Z,2.90
2019-02-02T00:06:52.843Z,2.80
2019-02-02T00:09:21.521Z,2.80
2019-02-02T00:11:50.185Z,2.90
2019-02-02T00:14:18.839Z,3.00
2019-02-02T00:16:48.176Z,3.00
2019-02-02T00:21:45.242Z,3.00
2019-02-02T00:24:13.936Z,3.00
2019-02-02T00:26:42.593Z,3.00
2019-02-02T00:29:11.249Z,3.00
2019-02-02T00:31:39.989Z,3.00
2019-02-02T00:34:08.674Z,3.00
2019-02-02T00:36:37.361Z,3.00
2019-02-02T00:41:36.968Z,3.10
2019-02-02T00:44:05.846Z,3.10
2019-02-02T00:46:34.776Z,3.10
2019-02-02T00:49:03.926Z,3.00
2019-02-02T00:51:32.880Z,3.00
2019-02-02T00:54:01.917Z,3.10
2019-02-02T00:56:30.729Z,3.10
2019-02-02T00:58:59.785Z,3.10
2019-02-02T01:03:57.019Z,3.00
2019-02-02T01:06:26.033Z,3.10
2019-02-02T01:08:54.794Z,3.20
2019-02-02T01:11:23.451Z,3.20
2019-02-02T01:13:52.135Z,3.10
2019-02-02T01:16:20.876Z,3.20
2019-02-02T01:18:49.620Z,3.20
2019-02-02T01:21:18.268Z,3.20
2019-02-02T01:26:15.261Z,3.30
2019-02-02T01:28:43.907Z,3.30
2019-02-02T01:31:12.576Z,3.30
2019-02-02T01:33:41.248Z,3.30
2019-02-02T01:36:10.157Z,3.30
2019-02-02T01:38:39.154Z,3.30
2019-02-02T01:41:07.818Z,3.30
2019-02-02T01:43:36.481Z,3.30
2019-02-02T01:48:33.602Z,3.20
2019-02-02T01:51:02.513Z,3.20
2019-02-02T01:53:31.597Z,3.20
2019-02-02T01:56:00.258Z,3.10
2019-02-02T01:58:28.932Z,3.00
2019-02-02T02:00:57.598Z,3.10
2019-02-02T02:03:26.565Z,3.10
2019-02-02T02:08:23.525Z,2.90
2019-02-02T02:10:52.227Z,3.00
2019-02-02T02:13:20.962Z,3.00
2019-02-02T02:15:49.635Z,2.90
2019-02-02T02:18:18.362Z,2.90
2019-02-02T02:20:47.026Z,2.90
2019-02-02T02:23:16.001Z,3.00
2019-02-02T02:25:44.667Z,2.90
2019-02-02T02:30:42.024Z,2.90
2019-02-02T02:33:11.791Z,3.00
2019-02-02T02:35:40.466Z,2.90
2019-02-02T02:38:09.150Z,3.00
2019-02-02T02:40:37.822Z,3.00
2019-02-02T02:43:06.482Z,2.90
2019-02-02T02:45:35.184Z,2.90
2019-02-02T02:48:03.887Z,3.40
2019-02-02T02:53:00.850Z,3.00
2019-02-02T02:55:29.597Z,3.20
2019-02-02T02:57:58.245Z,3.10
2019-02-02T03:00:27.496Z,3.10
2019-02-02T03:02:56.289Z,3.00
2019-02-02T03:05:25.115Z,3.00
2019-02-02T03:07:53.838Z,3.10
2019-02-02T03:10:23.688Z,3.00
2019-02-02T03:15:20.908Z,3.10
2019-02-02T03:17:49.733Z,3.00
2019-02-02T03:20:18.751Z,3.00
2019-02-02T03:22:47.390Z,3.00
2019-02-02T03:25:21.170Z,3.00
2019-02-02T03:27:50.128Z,2.90
2019-02-02T03:30:19.700Z,2.90
2019-02-02T03:32:48.372Z,2.90
2019-02-02T03:37:46.262Z,2.80
2019-02-02T03:40:16.861Z,2.90
2019-02-02T03:42:45.635Z,3.00
2019-02-02T03:45:16.245Z,3.10
2019-02-02T03:47:44.913Z,3.20
2019-02-02T03:50:13.571Z,3.20
2019-02-02T03:52:42.245Z,3.30
2019-02-02T03:55:11.641Z,3.20
2019-02-02T04:00:14.164Z,3.30
2019-02-02T04:02:42.803Z,3.30
2019-02-02T04:05:14.190Z,3.20
2019-02-02T04:07:42.858Z,3.20
2019-02-02T04:10:11.686Z,3.30
2019-02-02T04:12:40.455Z,3.30
2019-02-02T04:15:09.213Z,3.30
2019-02-02T04:17:37.873Z,3.20
2019-02-02T04:22:35.989Z,3.20
2019-02-02T04:25:05.713Z,3.20
2019-02-02T04:27:34.376Z,3.20
2019-02-02T04:30:03.032Z,3.20
2019-02-02T04:32:31.749Z,3.10
2019-02-02T04:35:00.409Z,3.40
2019-02-02T04:37:29.120Z,3.20
2019-02-02T04:39:57.791Z,3.00
2019-02-02T04:44:54.773Z,3.30
2019-02-02T04:47:23.428Z,3.30
2019-02-02T04:49:52.101Z,3.40
2019-02-02T04:52:20.765Z,3.40
2019-02-02T04:54:49.510Z,3.40
2019-02-02T04:57:18.192Z,3.50
2019-02-02T04:59:46.870Z,3.50
2019-02-02T05:04:43.815Z,3.60
2019-02-02T05:07:12.500Z,3.50
2019-02-02T05:09:41.165Z,3.50
2019-02-02T05:12:09.827Z,3.60
2019-02-02T05:14:38.476Z,3.70
2019-02-02T05:17:07.153Z,3.70
2019-02-02T05:19:35.851Z,3.70
2019-02-02T05:22:04.505Z,3.70
2019-02-02T05:27:01.469Z,3.70
2019-02-02T05:29:40.761Z,3.70
2019-02-02T05:32:00.853Z,3.80
2019-02-02T05:34:29.621Z,3.80
2019-02-02T05:36:58.265Z,3.90
2019-02-02T05:39:27.452Z,3.90
2019-02-02T05:41:56.422Z,4.00
2019-02-02T05:46:53.427Z,4.00
2019-02-02T05:49:22.114Z,4.00
2019-02-02T05:51:50.774Z,4.00
2019-02-02T05:54:19.454Z,4.00
2019-02-02T05:56:48.113Z,3.90
2019-02-02T05:59:16.788Z,3.90
2019-02-02T06:01:45.629Z,3.90
2019-02-02T06:04:14.305Z,4.00
2019-02-02T06:09:11.592Z,4.00
2019-02-02T06:11:40.254Z,4.00
2019-02-02T06:14:08.941Z,4.00
2019-02-02T06:16:37.609Z,4.00
2019-02-02T06:19:06.267Z,4.00
2019-02-02T06:21:34.923Z,4.00
2019-02-02T06:24:03.846Z,4.00
2019-02-02T06:26:32.509Z,3.90
2019-02-02T06:31:29.454Z,4.00
2019-02-02T06:33:58.154Z,4.00
2019-02-02T06:36:27.129Z,4.00
2019-02-02T06:38:56.229Z,3.90
2019-02-02T06:41:25.225Z,3.90
2019-02-02T06:43:54.281Z,4.00
2019-02-02T06:46:23.279Z,4.00
2019-02-02T06:48:52.079Z,4.10
2019-02-02T06:53:49.078Z,4.10
2019-02-02T06:56:17.762Z,4.10
2019-02-02T06:58:47.004Z,4.10
2019-02-02T07:01:15.648Z,4.20
2019-02-02T07:03:44.307Z,4.20
2019-02-02T07:06:13.010Z,4.20
2019-02-02T07:08:42.211Z,4.20
2019-02-02T07:13:40.057Z,4.20
2019-02-02T07:16:08.869Z,4.20
2019-02-02T07:18:37.854Z,4.20
2019-02-02T07:21:06.955Z,4.30
2019-02-02T07:23:36.201Z,4.30
2019-02-02T07:26:05.250Z,4.30
2019-02-02T07:28:34.065Z,4.40
2019-02-02T07:31:02.917Z,4.30
2019-02-02T07:36:00.431Z,4.30
2019-02-02T07:38:29.291Z,4.40
2019-02-02T07:40:58.360Z,4.40
2019-02-02T07:43:27.550Z,4.40
2019-02-02T07:45:56.500Z,4.40
2019-02-02T07:48:25.299Z,4.40
2019-02-02T07:50:54.304Z,4.40
2019-02-02T07:53:23.483Z,4.60
2019-02-02T07:58:20.950Z,4.60
2019-02-02T08:00:50.136Z,4.50
2019-02-02T08:03:19.360Z,4.50
2019-02-02T08:05:48.363Z,4.50
2019-02-02T08:08:17.552Z,4.60
2019-02-02T08:10:46.454Z,4.60
2019-02-02T08:13:15.569Z,4.60
2019-02-02T08:15:44.481Z,4.60
2019-02-02T08:20:42.392Z,4.60
2019-02-02T08:23:11.480Z,4.70
2019-02-02T08:25:40.668Z,4.70
2019-02-02T08:28:09.577Z,4.70
2019-02-02T08:30:38.379Z,4.80
2019-02-02T08:33:07.468Z,4.60
2019-02-02T08:35:36.476Z,4.60
2019-02-02T08:38:05.224Z,4.50
2019-02-02T08:43:02.202Z,4.70
2019-02-02T08:45:30.889Z,4.80
2019-02-02T08:47:59.537Z,4.90
2019-02-02T08:50:33.457Z,5.00
2019-02-02T08:53:02.201Z,4.90
2019-02-02T08:55:30.901Z,4.90
2019-02-02T08:57:59.597Z,4.90
2019-02-02T09:00:28.285Z,5.50
2019-02-02T09:05:25.353Z,5.00
2019-02-02T09:07:54.463Z,5.10
2019-02-02T09:10:24.840Z,5.10
2019-02-02T09:12:53.512Z,5.10
2019-02-02T09:15:22.176Z,5.20
2019-02-02T09:17:50.852Z,5.20
2019-02-02T09:20:19.614Z,5.20
2019-02-02T09:27:45.290Z,5.30
2019-02-02T09:30:19.144Z,5.40
2019-02-02T09:32:47.907Z,5.40
2019-02-02T09:35:16.567Z,5.50
2019-02-02T09:37:46.293Z,5.50
2019-02-02T09:40:16.336Z,5.60
2019-02-02T09:42:45.093Z,5.60
2019-02-02T09:45:15.072Z,5.20
2019-02-02T09:50:15.232Z,5.60
2019-02-02T09:52:44.010Z,5.80
2019-02-02T09:55:14.493Z,5.70
2019-02-02T09:57:43.185Z,5.80
2019-02-02T10:00:15.446Z,5.80
2019-02-02T10:02:46.055Z,5.80
2019-02-02T10:05:14.609Z,5.80
2019-02-02T10:07:43.317Z,6.00
2019-02-02T10:12:44.845Z,6.00
2019-02-02T10:15:13.822Z,6.10
2019-02-02T10:17:42.472Z,6.10
2019-02-02T10:20:13.605Z,6.10
2019-02-02T10:22:42.679Z,6.10
2019-02-02T10:25:12.821Z,6.20
2019-02-02T10:27:41.480Z,6.30
2019-02-02T10:30:23.645Z,6.50
2019-02-02T10:32:52.408Z,6.30
2019-02-02T10:37:49.886Z,6.30
2019-02-02T10:40:18.572Z,6.40
2019-02-02T10:42:47.223Z,6.40
2019-02-02T10:45:15.910Z,6.40
2019-02-02T10:47:44.578Z,6.50
2019-02-02T10:50:14.390Z,6.60
2019-02-02T10:52:43.050Z,6.70
2019-02-02T10:55:12.228Z,6.80
2019-02-02T11:00:13.239Z,6.80
2019-02-02T11:02:41.886Z,7.00
2019-02-02T11:05:10.785Z,7.10
2019-02-02T11:07:39.559Z,7.20
2019-02-02T11:10:11.015Z,7.20
2019-02-02T11:12:39.763Z,7.20
2019-02-02T11:15:10.712Z,7.30
2019-02-02T11:17:39.381Z,7.50
2019-02-02T11:22:38.175Z,7.30
2019-02-02T11:25:07.790Z,7.30
2019-02-02T11:27:36.477Z,7.40
2019-02-02T11:30:07.610Z,7.40
2019-02-02T11:32:37.169Z,7.40
2019-02-02T11:35:07.128Z,7.40
2019-02-02T11:37:35.830Z,7.30
2019-02-02T11:40:05.103Z,7.20
2019-02-02T11:45:02.072Z,7.30
2019-02-02T11:47:30.726Z,7.40
2019-02-02T11:49:59.384Z,7.40
2019-02-02T11:52:28.421Z,7.30
2019-02-02T11:54:57.075Z,7.20
2019-02-02T11:57:25.729Z,7.30
2019-02-02T11:59:54.702Z,7.40
2019-02-02T12:07:19.971Z,7.50
2019-02-02T12:09:48.648Z,7.50
2019-02-02T12:12:17.337Z,7.60
2019-02-02T12:14:46.417Z,7.60
2019-02-02T12:17:15.072Z,7.70
2019-02-02T12:19:43.789Z,7.80
2019-02-02T12:22:12.662Z,7.80
2019-02-02T12:27:09.630Z,7.60
2019-02-02T12:29:38.333Z,7.90
2019-02-02T12:32:07.231Z,8.00
2019-02-02T12:34:35.893Z,8.00
2019-02-02T12:37:04.626Z,8.10
2019-02-02T12:39:33.276Z,8.10
2019-02-02T12:42:01.945Z,8.20
2019-02-02T12:44:30.576Z,8.20
2019-02-02T12:49:27.642Z,8.20
2019-02-02T12:51:56.669Z,8.30
2019-02-02T12:54:25.409Z,8.20
2019-02-02T12:56:54.077Z,8.30
2019-02-02T12:59:23.804Z,8.40
2019-02-02T13:01:52.493Z,8.40
2019-02-02T13:04:21.136Z,8.40
2019-02-02T13:06:52.130Z,8.30
2019-02-02T13:11:48.964Z,8.20
2019-02-02T13:14:17.668Z,8.30
2019-02-02T13:16:46.339Z,8.40
2019-02-02T13:19:15.366Z,8.40
2019-02-02T13:21:44.117Z,8.40
2019-02-02T13:24:12.829Z,8.40
2019-02-02T13:26:41.469Z,8.60
2019-02-02T13:31:38.612Z,8.60
2019-02-02T13:34:07.551Z,8.60
2019-02-02T13:36:36.214Z,8.60
2019-02-02T13:39:08.557Z,8.60
2019-02-02T13:41:37.189Z,8.70
2019-02-02T13:44:05.845Z,8.70
2019-02-02T13:46:34.820Z,8.70
2019-02-02T13:49:03.474Z,8.80
2019-02-02T13:54:00.435Z,8.80
2019-02-02T13:56:29.079Z,8.90
2019-02-02T13:58:57.881Z,8.90
2019-02-02T14:01:27.073Z,8.90
2019-02-02T14:03:55.799Z,8.90
2019-02-02T14:06:24.739Z,8.80
2019-02-02T14:08:53.441Z,8.90
2019-02-02T14:11:22.123Z,8.80
2019-02-02T14:16:19.333Z,8.70
2019-02-02T14:18:48.156Z,8.80
2019-02-02T14:21:16.805Z,8.80
2019-02-02T14:23:45.473Z,8.80
2019-02-02T14:26:14.115Z,8.70
2019-02-02T14:28:42.777Z,8.60
2019-02-02T14:31:11.420Z,8.60
2019-02-02T14:33:40.067Z,8.60
2019-02-02T14:38:37.005Z,8.60
2019-02-02T14:41:05.663Z,8.60
2019-02-02T14:43:34.309Z,8.60
2019-02-02T14:46:02.978Z,8.60
2019-02-02T14:51:00.920Z,8.60
2019-02-02T14:53:29.569Z,8.60
2019-02-02T15:00:54.990Z,8.60
2019-02-02T15:03:25.765Z,8.60
2019-02-02T15:05:54.114Z,8.60
2019-02-02T15:08:22.755Z,8.60
2019-02-02T15:10:51.426Z,8.50
2019-02-02T15:13:20.065Z,8.50
2019-02-02T15:15:48.713Z,8.40
2019-02-02T15:20:45.654Z,8.30
2019-02-02T15:23:14.325Z,8.30
2019-02-02T15:25:43.020Z,8.30
2019-02-02T15:28:11.709Z,8.30
2019-02-02T15:30:40.391Z,8.20
2019-02-02T15:33:09.114Z,8.20
2019-02-02T15:35:37.804Z,8.20
2019-02-02T15:38:06.522Z,8.10
2019-02-02T15:43:03.586Z,8.00
2019-02-02T15:45:32.366Z,8.00
2019-02-02T15:48:01.061Z,8.00
2019-02-02T15:50:29.729Z,7.90
2019-02-02T15:52:58.662Z,7.80
2019-02-02T15:55:27.362Z,7.80
2019-02-02T15:57:56.046Z,7.70
2019-02-02T16:00:29.493Z,7.60
2019-02-02T16:02:58.148Z,7.50
2019-02-02T16:05:26.875Z,7.60
2019-02-02T16:07:56.487Z,7.60
2019-02-02T16:10:26.432Z,7.50
2019-02-02T16:12:55.517Z,7.50
2019-02-02T16:15:24.192Z,7.40
2019-02-02T16:17:53.170Z,7.40
2019-02-02T16:20:30.192Z,7.30
2019-02-02T16:22:58.885Z,7.30
2019-02-02T16:27:56.258Z,7.20
2019-02-02T16:30:26.294Z,7.20
2019-02-02T16:32:54.950Z,7.10
2019-02-02T16:35:23.637Z,7.10
2019-02-02T16:37:52.378Z,7.00
2019-02-02T16:40:25.371Z,6.90
2019-02-02T16:42:54.150Z,6.80
2019-02-02T16:45:24.636Z,6.70
2019-02-02T16:50:21.925Z,6.70
2019-02-02T16:52:50.620Z,6.70
2019-02-02T16:55:19.338Z,6.70
2019-02-02T16:57:49.089Z,6.60
2019-02-02T17:00:22.705Z,6.40
2019-02-02T17:02:51.651Z,6.40
2019-02-02T17:05:20.303Z,6.30
2019-02-02T17:07:49.049Z,6.10
2019-02-02T17:12:47.134Z,6.00
2019-02-02T17:15:15.772Z,6.00
2019-02-02T17:17:44.497Z,6.40
2019-02-02T17:20:18.670Z,6.50
2019-02-02T17:22:47.385Z,6.60
2019-02-02T17:25:17.237Z,6.40
2019-02-02T17:27:46.532Z,6.40
2019-02-02T17:30:17.710Z,6.30
2019-02-02T17:32:46.401Z,6.20
2019-02-02T17:37:43.369Z,6.20
2019-02-02T17:40:14.433Z,6.10
2019-02-02T17:42:43.572Z,6.00
2019-02-02T17:45:14.190Z,5.80
2019-02-02T17:47:42.852Z,5.70
2019-02-02T17:50:16.580Z,5.70
2019-02-02T17:52:45.344Z,5.70
2019-02-02T17:55:14.029Z,5.60
2019-02-02T18:00:14.188Z,5.50
2019-02-02T18:02:43.009Z,5.60
2019-02-02T18:05:13.600Z,5.60
2019-02-02T18:07:42.624Z,5.60
2019-02-02T18:10:12.938Z,5.70
2019-02-02T18:12:41.681Z,5.70
2019-02-02T18:15:14.223Z,5.50
2019-02-02T18:17:43.214Z,5.40
2019-02-02T18:22:40.821Z,5.40
2019-02-02T18:25:11.222Z,5.50
2019-02-02T18:27:39.868Z,5.60
2019-02-02T18:30:12.696Z,5.60
2019-02-02T18:32:41.522Z,5.70
2019-02-02T18:35:10.743Z,5.70
2019-02-02T18:37:39.493Z,5.80
2019-02-02T18:40:08.854Z,5.80
2019-02-02T18:45:06.267Z,5.80
2019-02-02T18:47:34.912Z,5.80
2019-02-02T18:50:03.812Z,5.80
2019-02-02T18:52:32.619Z,5.90
2019-02-02T18:55:01.288Z,5.80
2019-02-02T18:57:30.030Z,5.80
2019-02-02T18:59:58.702Z,5.90
2019-02-02T19:02:27.374Z,5.80
2019-02-02T19:07:27.270Z,5.90
2019-02-02T19:09:55.988Z,5.90
2019-02-02T19:12:24.689Z,5.90
2019-02-02T19:14:53.722Z,5.90
2019-02-02T19:17:22.449Z,5.90
2019-02-02T19:19:51.168Z,5.90
2019-02-02T19:22:19.852Z,5.80
2019-02-02T19:24:48.530Z,5.70
2019-02-02T19:29:45.481Z,5.80
2019-02-02T19:32:14.153Z,5.80
2019-02-02T19:34:42.821Z,5.90
2019-02-02T19:37:11.468Z,6.00
2019-02-02T19:39:40.134Z,6.00
2019-02-02T19:42:08.815Z,6.00
2019-02-02T19:44:37.628Z,5.90
2019-02-02T19:52:04.717Z,5.80
2019-02-02T19:54:33.369Z,5.80
2019-02-02T19:57:02.046Z,5.80
2019-02-02T19:59:30.999Z,5.80
2019-02-02T20:01:59.935Z,5.80
2019-02-02T20:04:28.922Z,5.80
2019-02-02T20:06:57.778Z,5.80
2019-02-02T20:11:55.386Z,5.80
2019-02-02T20:14:24.047Z,5.80
2019-02-02T20:16:52.703Z,5.90
2019-02-02T20:19:21.442Z,5.80
2019-02-02T20:21:50.109Z,5.80
2019-02-02T20:24:18.769Z,5.80
2019-02-02T20:26:47.559Z,5.90
2019-02-02T20:29:16.264Z,5.90
2019-02-02T20:34:13.226Z,5.90
2019-02-02T20:36:41.899Z,5.90
2019-02-02T20:39:10.546Z,5.90
2019-02-02T20:41:39.213Z,6.00
2019-02-02T20:44:07.872Z,6.00
2019-02-02T20:46:36.725Z,6.00
2019-02-02T20:49:07.956Z,6.00
2019-02-02T20:51:35.877Z,6.00
2019-02-02T20:56:33.138Z,6.00
2019-02-02T20:59:02.065Z,6.00
2019-02-02T21:01:31.082Z,6.00
2019-02-02T21:03:59.743Z,6.00
2019-02-02T21:06:28.419Z,6.00
2019-02-02T21:08:57.121Z,6.00
2019-02-02T21:11:25.847Z,5.90
2019-02-02T21:18:51.411Z,6.00
2019-02-02T21:21:20.112Z,5.90
2019-02-02T21:23:48.781Z,6.00
2019-02-02T21:26:17.725Z,6.00
2019-02-02T21:28:50.440Z,6.00
2019-02-02T21:31:16.816Z,6.00
2019-02-02T21:33:45.477Z,6.00
2019-02-02T21:38:42.581Z,6.00
2019-02-02T21:41:11.313Z,6.00
2019-02-02T21:43:40.040Z,6.00
2019-02-02T21:46:08.697Z,6.00
2019-02-02T21:48:37.379Z,6.00
2019-02-02T21:51:06.096Z,6.00
2019-02-02T21:53:35.148Z,6.00
2019-02-02T21:56:03.881Z,5.60
2019-02-02T22:01:01.206Z,6.00
2019-02-02T22:03:29.886Z,6.00
2019-02-02T22:05:58.520Z,6.00
2019-02-02T22:08:27.341Z,6.00
2019-02-02T22:10:56.001Z,6.00
2019-02-02T22:13:24.703Z,5.90
2019-02-02T22:15:53.356Z,6.00
2019-02-02T22:18:22.076Z,5.90
2019-02-02T22:23:19.056Z,5.90
2019-02-02T22:25:47.700Z,5.80
2019-02-02T22:28:16.387Z,5.80
2019-02-02T22:30:45.058Z,5.90
2019-02-02T22:33:13.728Z,5.50
2019-02-02T22:35:43.449Z,5.90
2019-02-02T22:38:12.105Z,5.80
2019-02-02T22:43:09.570Z,5.80
2019-02-02T22:45:38.300Z,5.90
2019-02-02T22:48:06.973Z,5.80
2019-02-02T22:50:35.641Z,5.80
2019-02-02T22:53:04.388Z,5.80
2019-02-02T22:55:33.041Z,5.70
2019-02-02T22:58:01.676Z,5.70
2019-02-02T23:00:57.162Z,5.60
2019-02-02T23:03:29.144Z,5.50
2019-02-02T23:06:39.206Z,5.50
2019-02-02T23:10:04.327Z,5.50
2019-02-02T23:12:52.581Z,5.40
2019-02-02T23:16:01.368Z,5.40
2019-02-02T23:18:30.016Z,5.40
2019-02-02T23:20:58.689Z,5.40
2019-02-02T23:23:27.415Z,5.30
2019-02-02T23:25:56.082Z,5.40
2019-02-02T23:28:24.753Z,5.60
2019-02-02T23:33:23.773Z,5.40
2019-02-02T23:35:52.500Z,5.40
2019-02-02T23:38:21.158Z,5.40
2019-02-02T23:40:49.829Z,5.40
2019-02-02T23:43:18.497Z,5.30
2019-02-02T23:45:47.181Z,5.20
2019-02-02T23:48:15.860Z,5.20
2019-02-02T23:53:13.536Z,5.20
2019-02-02T23:55:42.264Z,5.20
2019-02-02T23:58:10.931Z,5.10
